Time;durP1;ratioP1;P1;durP2;ratioP2;P2;SDS_P1;SDS_P2;PMS_P1;PMS_P2;Temp;Humidity;BMP_temperature;BMP_pressure;BME280_temperature;BME280_humidity;BME280_pressure;Samples;Min_cycle;Max_cycle;Signal;HPM_P1;HPM_P2
2022/06/22 01:16:46;;;;;;;3.10;1.73;;;16.00;79.70;;;;;;2106241;28;20044;-92
2022/06/22 01:18:10;;;;;;;3.88;1.80;;;16.00;79.70;;;;;;2107731;28;20048;-91
2022/06/22 01:19:44;;;;;;;4.50;2.05;;;16.00;79.90;;;;;;2097385;28;20033;-91
2022/06/22 01:21:22;;;;;;;4.60;2.10;;;16.00;80.10;;;;;;2093248;28;20070;-92
2022/06/22 01:22:49;;;;;;;4.47;1.92;;;16.00;80.20;;;;;;2106283;28;20044;-92
2022/06/22 01:24:38;;;;;;;2.95;1.75;;;16.00;80.40;;;;;;2107131;28;20083;-92
2022/06/22 01:26:18;;;;;;;3.72;1.98;;;16.00;80.50;;;;;;2098115;28;20071;-92
2022/06/22 01:27:41;;;;;;;3.83;2.20;;;16.00;80.60;;;;;;2098685;28;20577;-91
2022/06/22 01:29:06;;;;;;;3.58;2.05;;;15.90;80.60;;;;;;2086730;28;20041;-92
2022/06/22 01:30:38;;;;;;;4.35;1.85;;;15.90;80.70;;;;;;2088450;28;20123;-92
2022/06/22 01:32:12;;;;;;;4.35;2.05;;;15.90;80.80;;;;;;2092931;28;20124;-92
2022/06/22 01:33:43;;;;;;;3.15;1.77;;;15.90;80.90;;;;;;2089622;28;20045;-91
2022/06/22 01:35:22;;;;;;;6.20;2.25;;;15.90;81.10;;;;;;2093669;28;20049;-92
2022/06/22 01:36:41;;;;;;;4.05;2.03;;;15.90;81.00;;;;;;2107456;28;20040;-91
2022/06/22 01:38:21;;;;;;;4.07;2.28;;;15.90;81.10;;;;;;2092612;28;20415;-91
2022/06/22 01:39:41;;;;;;;4.82;2.40;;;15.90;81.20;;;;;;2090037;28;20108;-89
2022/06/22 01:41:04;;;;;;;4.65;2.20;;;15.80;81.30;;;;;;2079184;28;20041;-93
2022/06/22 01:42:27;;;;;;;4.70;2.40;;;15.80;81.50;;;;;;2092479;28;20029;-92
2022/06/22 01:44:02;;;;;;;4.47;2.22;;;15.80;81.60;;;;;;2096271;28;20036;-92
2022/06/22 01:45:44;;;;;;;4.78;2.10;;;15.80;82.40;;;;;;2105205;28;20119;-92
2022/06/22 01:47:22;;;;;;;4.40;2.30;;;15.80;81.80;;;;;;2090723;28;20064;-92
2022/06/22 01:48:53;;;;;;;4.07;2.10;;;15.70;81.80;;;;;;2098418;28;20036;-92
2022/06/22 01:50:35;;;;;;;5.22;2.40;;;15.70;82.00;;;;;;2099784;28;20036;-92
2022/06/22 01:52:04;;;;;;;5.82;2.20;;;15.70;82.00;;;;;;2098832;28;20048;-94
2022/06/22 01:54:25;;;;;;;4.65;2.50;;;15.70;82.10;;;;;;2073822;28;20042;-91
2022/06/22 01:56:24;;;;;;;3.10;2.20;;;15.60;82.00;;;;;;2076740;28;20451;-92
2022/06/22 02:20:01;;;;;;;4.35;2.10;;;15.40;82.40;;;;;;2114811;28;21118;-90
2022/06/22 02:22:19;;;;;;;3.60;2.30;;;15.40;82.50;;;;;;2088550;28;20395;-90
2022/06/22 02:24:27;;;;;;;4.35;2.03;;;15.40;82.60;;;;;;2098048;28;20048;-92
2022/06/22 02:29:21;;;;;;;3.88;2.10;;;15.40;82.60;;;;;;2120016;27;20552;-90
2022/06/22 02:31:40;;;;;;;4.85;2.30;;;15.30;82.70;;;;;;2113699;28;20035;-91
2022/06/22 02:34:02;;;;;;;4.47;2.53;;;15.30;82.80;;;;;;2116325;28;20044;-91
2022/06/22 02:36:42;;;;;;;5.03;2.13;;;15.30;83.00;;;;;;2090883;28;20115;-90
2022/06/22 02:39:09;;;;;;;5.40;2.50;;;15.20;83.10;;;;;;2095134;28;20493;-91
2022/06/22 04:31:40;;;;;;;4.43;1.83;;;15.50;83.10;;;;;;2116981;28;20473;-93
2022/06/22 04:33:58;;;;;;;4.35;2.00;;;15.60;83.10;;;;;;2117017;28;20082;-93
2022/06/22 04:40:40;;;;;;;4.57;2.38;;;15.60;83.40;;;;;;2121839;27;20051;-91
2022/06/22 04:42:02;;;;;;;4.25;2.50;;;15.70;83.60;;;;;;2123966;27;20401;-92
2022/06/22 04:43:23;;;;;;;4.10;2.60;;;15.70;83.60;;;;;;2099226;28;20044;-91
2022/06/22 04:45:30;;;;;;;4.38;2.50;;;15.70;83.70;;;;;;2099248;28;20417;-91
2022/06/22 05:11:29;;;;;;;3.50;2.25;;;16.70;81.70;;;;;;2094559;28;20076;-94
2022/06/22 05:13:53;;;;;;;3.67;2.20;;;16.90;81.40;;;;;;2096254;28;20056;-94
2022/06/22 05:16:06;;;;;;;2.95;1.83;;;17.10;81.10;;;;;;2098942;28;20044;-93
2022/06/22 05:17:35;;;;;;;3.45;1.95;;;17.20;80.80;;;;;;2099389;28;20028;-93
2022/06/22 05:19:36;;;;;;;3.47;2.00;;;17.40;80.50;;;;;;2099015;28;20041;-92
2022/06/22 05:21:37;;;;;;;3.40;1.90;;;17.50;80.20;;;;;;2099540;28;20104;-93
2022/06/22 05:23:23;;;;;;;3.17;2.00;;;17.60;80.00;;;;;;2074945;28;20038;-94
2022/06/22 05:25:15;;;;;;;4.00;2.05;;;17.70;79.80;;;;;;2082288;28;20033;-93
2022/06/22 05:27:12;;;;;;;4.70;2.13;;;17.80;79.60;;;;;;2082390;28;20503;-93
2022/06/22 05:32:46;;;;;;;2.90;1.67;;;18.10;79.00;;;;;;2124369;27;20043;-92
2022/06/22 05:34:47;;;;;;;4.75;1.90;;;18.20;78.80;;;;;;2113860;28;20044;-93
2022/06/22 05:36:36;;;;;;;3.15;1.73;;;18.30;78.50;;;;;;2116122;28;20413;-92
2022/06/22 05:39:44;;;;;;;4.57;2.17;;;18.30;78.00;;;;;;2122040;27;20043;-92
2022/06/22 05:41:34;;;;;;;4.20;2.22;;;18.40;78.00;;;;;;2108297;28;20044;-93
2022/06/22 05:43:17;;;;;;;3.30;1.85;;;18.40;78.00;;;;;;2123439;27;20031;-92
2022/06/22 05:45:25;;;;;;;3.05;1.85;;;18.40;77.90;;;;;;2112768;28;20036;-90
2022/06/22 05:46:54;;;;;;;2.58;1.55;;;18.50;77.80;;;;;;2112812;27;20039;-89
2022/06/22 08:09:04;;;;;;;1.45;0.63;;;23.00;62.90;;;;;;2106779;28;20040;-89
2022/06/22 08:10:51;;;;;;;1.95;0.65;;;23.20;62.80;;;;;;2106584;28;20402;-89
2022/06/22 08:12:29;;;;;;;0.70;0.55;;;23.20;61.70;;;;;;2100301;28;20091;-89
2022/06/22 08:14:20;;;;;;;1.75;0.60;;;23.20;61.30;;;;;;2105643;28;20028;-89
2022/06/22 08:16:01;;;;;;;2.58;0.70;;;23.20;61.30;;;;;;2109343;28;20063;-89
2022/06/22 08:17:55;;;;;;;1.73;0.60;;;23.20;61.20;;;;;;2106278;28;20040;-89
2022/06/22 08:19:15;;;;;;;2.72;0.80;;;23.20;61.00;;;;;;2101096;28;20047;-89
2022/06/22 08:20:40;;;;;;;1.50;0.70;;;23.30;61.00;;;;;;2094671;28;20033;-88
2022/06/22 08:22:09;;;;;;;1.42;0.85;;;23.40;60.70;;;;;;2089862;28;20045;-89
2022/06/22 08:23:36;;;;;;;2.40;0.80;;;23.30;60.50;;;;;;2106006;28;20067;-89
2022/06/22 08:29:34;;;;;;;1.27;0.50;;;23.50;60.00;;;;;;2067188;28;20038;-89
2022/06/22 08:31:29;;;;;;;1.23;0.60;;;23.50;59.80;;;;;;2092719;28;20076;-89
2022/06/22 08:33:19;;;;;;;1.45;0.60;;;23.50;59.50;;;;;;2106535;28;20041;-89
2022/06/22 08:35:04;;;;;;;1.70;0.57;;;23.40;59.30;;;;;;2104790;28;20417;-88
2022/06/22 08:36:52;;;;;;;2.22;0.68;;;23.40;59.20;;;;;;2117728;28;20039;-88
2022/06/22 08:38:31;;;;;;;;;;;23.40;59.10;;;;;;2089953;28;20037;-89
2022/06/22 08:40:44;;;;;;;1.00;0.50;;;23.40;59.00;;;;;;2112741;28;20345;-88
2022/06/22 08:42:39;;;;;;;1.42;0.70;;;23.50;58.90;;;;;;2115174;28;20039;-88
2022/06/22 08:44:11;;;;;;;1.40;0.40;;;23.50;58.50;;;;;;2110293;28;20361;-89
2022/06/22 08:46:08;;;;;;;0.77;0.60;;;23.60;58.30;;;;;;2105351;28;20115;-88
2022/06/22 09:12:37;;;;;;;1.88;0.50;;;24.40;54.90;;;;;;2098061;28;20492;-87
2022/06/22 09:14:34;;;;;;;0.65;0.32;;;24.40;54.80;;;;;;2084922;28;20045;-88
2022/06/22 09:16:29;;;;;;;2.13;0.40;;;24.40;54.60;;;;;;2091210;28;20033;-89
2022/06/22 09:18:24;;;;;;;0.93;0.40;;;24.50;54.50;;;;;;2075692;28;20046;-88
2022/06/22 09:20:10;;;;;;;1.80;0.40;;;24.60;54.30;;;;;;2091137;28;20036;-89
2022/06/22 09:22:08;;;;;;;1.35;0.43;;;24.70;54.10;;;;;;2085398;28;20029;-89
2022/06/22 09:24:07;;;;;;;0.77;0.47;;;24.80;53.40;;;;;;2087304;28;20511;-87
2022/06/22 09:25:57;;;;;;;1.48;0.40;;;24.80;52.80;;;;;;2090018;28;20498;-89
2022/06/22 09:28:00;;;;;;;0.90;0.40;;;24.80;52.60;;;;;;2097648;28;20037;-88
2022/06/22 09:30:04;;;;;;;0.60;0.30;;;24.80;52.50;;;;;;2090349;28;20462;-89
2022/06/22 09:31:55;;;;;;;1.27;0.50;;;25.00;52.50;;;;;;2098712;28;20036;-89
2022/06/22 09:33:33;;;;;;;;;;;25.00;52.10;;;;;;2090927;28;20119;-88
2022/06/22 09:35:12;;;;;;;1.23;0.50;;;25.00;51.70;;;;;;2097486;28;19959;-88
2022/06/22 09:37:08;;;;;;;1.35;0.40;;;25.00;52.00;;;;;;2089276;28;20025;-88
2022/06/22 09:39:13;;;;;;;1.77;0.60;;;25.00;51.40;;;;;;2099369;28;20029;-88
2022/06/22 09:40:58;;;;;;;1.67;0.40;;;25.00;50.90;;;;;;2091057;28;20041;-88
2022/06/22 09:45:12;;;;;;;0.50;0.30;;;24.90;51.10;;;;;;2096012;28;20429;-90
2022/06/22 09:57:59;;;;;;;1.25;0.60;;;25.50;48.70;;;;;;2114621;28;20031;-91
2022/06/22 10:02:18;;;;;;;1.25;0.50;;;25.50;49.00;;;;;;2107379;28;20032;-91
2022/06/22 10:07:03;;;;;;;1.23;0.40;;;25.50;48.20;;;;;;2096907;28;20055;-93
2022/06/22 10:09:21;;;;;;;0.70;0.45;;;25.50;48.10;;;;;;2102501;28;20040;-92
2022/06/22 10:11:26;;;;;;;0.95;0.40;;;25.60;48.10;;;;;;2058066;28;20035;-91
2022/06/22 10:17:17;;;;;;;1.40;0.50;;;25.70;47.60;;;;;;2094789;28;20470;-91
2022/06/22 10:19:36;;;;;;;1.90;0.57;;;25.70;47.40;;;;;;2090916;28;20060;-90
2022/06/22 10:21:40;;;;;;;1.27;0.43;;;25.50;47.20;;;;;;2091269;28;20049;-91
2022/06/22 10:24:10;;;;;;;0.88;0.30;;;25.50;47.60;;;;;;2094571;28;20397;-91
2022/06/22 13:30:09;;;;;;;1.52;0.30;;;28.20;39.40;;;;;;2115716;28;20070;-93
2022/06/22 13:32:15;;;;;;;0.50;0.30;;;27.90;39.50;;;;;;2104583;28;20075;-91
2022/06/22 13:34:36;;;;;;;1.08;0.40;;;27.70;39.60;;;;;;2115302;28;20032;-92
2022/06/22 13:50:23;;;;;;;0.95;0.50;;;26.90;39.60;;;;;;2108806;28;20078;-92
2022/06/22 13:52:54;;;;;;;0.60;0.40;;;26.80;39.60;;;;;;2111753;28;20044;-93
2022/06/22 13:54:46;;;;;;;0.50;0.30;;;26.80;39.70;;;;;;2114924;28;20043;-92
2022/06/22 14:16:57;;;;;;;0.88;0.40;;;26.40;39.60;;;;;;2106485;28;20044;-90
2022/06/22 14:19:00;;;;;;;1.83;0.50;;;26.40;39.80;;;;;;2100646;28;20029;-90
2022/06/22 14:20:28;;;;;;;0.73;0.40;;;26.40;39.80;;;;;;2107963;28;20106;-91
2022/06/22 14:22:07;;;;;;;0.70;0.40;;;26.30;39.80;;;;;;2103619;28;20036;-91
2022/06/22 14:23:34;;;;;;;0.47;0.30;;;26.40;40.00;;;;;;2089017;28;20120;-90
2022/06/22 14:25:29;;;;;;;1.55;0.50;;;26.40;40.10;;;;;;2089465;28;20041;-90
2022/06/22 14:26:54;;;;;;;0.60;0.45;;;26.40;40.20;;;;;;2094653;28;20040;-90
2022/06/22 14:28:45;;;;;;;0.57;0.38;;;26.40;40.10;;;;;;2100674;28;20024;-90
2022/06/22 14:31:02;;;;;;;1.48;0.50;;;26.40;40.10;;;;;;2096569;28;20044;-90
2022/06/22 14:35:48;;;;;;;0.77;0.40;;;26.40;40.20;;;;;;2103970;28;20502;-92
2022/06/22 14:37:53;;;;;;;1.95;0.50;;;26.40;40.20;;;;;;2103490;28;20036;-92
2022/06/22 14:39:43;;;;;;;2.00;0.50;;;26.50;40.30;;;;;;2095228;28;20028;-92
2022/06/22 14:45:00;;;;;;;1.30;0.40;;;26.40;40.30;;;;;;2111038;28;20517;-91
2022/06/22 14:49:45;;;;;;;0.50;0.38;;;26.40;40.20;;;;;;2109686;28;20183;-90
2022/06/22 14:56:28;;;;;;;0.52;0.40;;;26.40;40.10;;;;;;2107676;28;20070;-92
2022/06/22 14:58:55;;;;;;;0.90;0.40;;;26.40;40.10;;;;;;2081879;28;20041;-93
2022/06/22 15:01:16;;;;;;;0.70;0.40;;;26.40;40.30;;;;;;2064837;28;20106;-93
2022/06/22 16:21:46;;;;;;;1.17;0.50;;;26.20;40.30;;;;;;2100351;28;20033;-92
2022/06/22 16:24:19;;;;;;;0.93;0.38;;;26.20;40.10;;;;;;2100312;28;20422;-91
2022/06/22 16:26:22;;;;;;;1.08;0.43;;;26.10;40.00;;;;;;2102385;28;20135;-93
2022/06/22 16:32:28;;;;;;;0.68;0.40;;;26.10;40.10;;;;;;2103008;28;20047;-92
2022/06/22 16:34:49;;;;;;;0.63;0.47;;;26.10;40.20;;;;;;2096755;28;20072;-92
2022/06/22 16:37:22;;;;;;;0.95;0.50;;;26.20;40.40;;;;;;2074757;28;20042;-92
2022/06/22 16:39:43;;;;;;;0.38;0.38;;;26.10;40.40;;;;;;2059458;28;20039;-92
2022/06/22 17:39:51;;;;;;;0.95;0.35;;;25.70;40.40;;;;;;2094162;28;20064;-92
2022/06/22 17:49:51;;;;;;;1.15;0.45;;;25.70;40.30;;;;;;2105900;28;20051;-92
2022/06/22 17:52:13;;;;;;;0.70;0.40;;;25.70;40.10;;;;;;2105482;28;20052;-92
2022/06/22 17:53:59;;;;;;;0.85;0.45;;;25.70;40.30;;;;;;2108684;28;20052;-91
2022/06/22 17:56:06;;;;;;;1.05;0.45;;;25.60;41.00;;;;;;2099487;28;20479;-92
2022/06/22 17:58:43;;;;;;;0.38;0.30;;;25.60;40.30;;;;;;2100068;28;20037;-94
2022/06/22 18:15:09;;;;;;;0.70;0.40;;;25.40;40.40;;;;;;2120466;27;20055;-93
2022/06/22 18:17:46;;;;;;;0.70;0.40;;;25.40;40.30;;;;;;2111055;28;20545;-92
2022/06/22 18:20:05;;;;;;;0.65;0.40;;;25.30;40.30;;;;;;2088346;28;20033;-93
2022/06/22 18:29:51;;;;;;;1.80;0.30;;;25.30;40.10;;;;;;2120851;27;20450;-93
2022/06/22 18:32:05;;;;;;;0.32;0.30;;;25.20;39.90;;;;;;2122015;27;20078;-92
2022/06/22 18:34:13;;;;;;;0.47;0.32;;;25.20;40.10;;;;;;2116223;28;20027;-92
2022/06/22 18:45:22;;;;;;;3.20;0.50;;;25.00;40.00;;;;;;2105723;27;20867;-87
2022/06/22 18:46:50;;;;;;;0.60;0.30;;;24.90;40.00;;;;;;2103131;28;20107;-87
2022/06/22 18:48:21;;;;;;;0.60;0.50;;;24.90;40.10;;;;;;2097647;28;20024;-88
2022/06/22 18:49:48;;;;;;;0.47;0.30;;;24.90;40.10;;;;;;2095361;28;20037;-87
2022/06/22 18:51:19;;;;;;;0.73;0.30;;;24.80;40.10;;;;;;2097404;28;20091;-87
2022/06/22 18:52:54;;;;;;;0.63;0.30;;;24.80;40.10;;;;;;2098624;28;20491;-88
2022/06/22 18:54:20;;;;;;;0.82;0.45;;;24.70;40.20;;;;;;2095697;28;20025;-87
2022/06/22 18:55:39;;;;;;;0.60;0.30;;;24.70;40.40;;;;;;2100567;28;20036;-86
2022/06/22 18:57:01;;;;;;;0.75;0.30;;;24.70;40.40;;;;;;2101771;28;20021;-87
2022/06/22 18:58:24;;;;;;;0.68;0.38;;;24.60;40.40;;;;;;2105143;28;20028;-88
2022/06/22 18:59:50;;;;;;;0.73;0.30;;;24.60;40.50;;;;;;2104084;28;20033;-87
2022/06/22 19:01:26;;;;;;;0.43;0.30;;;24.60;40.60;;;;;;2096939;28;20040;-87
2022/06/22 19:03:03;;;;;;;0.57;0.40;;;24.50;40.60;;;;;;2095319;28;20025;-87
2022/06/22 19:04:30;;;;;;;1.10;0.40;;;24.50;40.70;;;;;;2100821;28;20490;-87
2022/06/22 19:05:50;;;;;;;0.73;0.43;;;24.50;40.80;;;;;;2106295;28;20414;-88
2022/06/22 19:07:14;;;;;;;0.77;0.30;;;24.40;40.80;;;;;;2103981;28;20025;-88
2022/06/22 19:08:44;;;;;;;0.70;0.40;;;24.40;40.80;;;;;;2102143;28;20028;-88
2022/06/22 19:10:08;;;;;;;1.98;0.38;;;24.40;40.90;;;;;;2105038;28;20024;-87
2022/06/22 19:11:33;;;;;;;0.88;0.40;;;24.40;41.00;;;;;;2097752;28;20021;-87
2022/06/22 19:12:58;;;;;;;0.52;0.30;;;24.30;41.00;;;;;;2096341;28;20032;-88
2022/06/22 19:14:18;;;;;;;1.85;0.40;;;24.30;41.00;;;;;;2097184;28;20029;-87
2022/06/22 19:16:10;;;;;;;0.93;0.40;;;24.20;41.00;;;;;;2096706;28;20041;-87
2022/06/22 19:18:01;;;;;;;1.33;0.57;;;24.20;41.10;;;;;;2096437;28;20025;-87
2022/06/22 19:19:56;;;;;;;0.50;0.30;;;24.20;41.30;;;;;;2115813;28;20035;-87
2022/06/22 19:21:36;;;;;;;2.20;0.45;;;24.10;41.30;;;;;;2083662;28;20570;-87
2022/06/22 19:23:05;;;;;;;0.63;0.50;;;24.10;41.40;;;;;;2098202;28;20032;-86
2022/06/22 19:25:00;;;;;;;1.05;0.57;;;24.00;41.40;;;;;;2094441;28;20503;-87
2022/06/22 19:26:25;;;;;;;0.70;0.30;;;24.00;41.50;;;;;;2096214;28;20024;-87
2022/06/22 19:27:58;;;;;;;0.30;0.30;;;23.90;41.50;;;;;;2093436;28;20040;-87
2022/06/22 19:29:30;;;;;;;0.30;0.30;;;23.90;41.70;;;;;;2102791;28;20039;-86
2022/06/22 19:31:07;;;;;;;1.80;0.40;;;23.90;42.40;;;;;;2099495;28;20024;-87
2022/06/22 19:32:40;;;;;;;0.68;0.28;;;23.80;41.80;;;;;;2097467;28;20028;-88
2022/06/22 19:34:17;;;;;;;0.63;0.40;;;23.80;41.90;;;;;;2096685;28;20040;-88
2022/06/22 19:35:57;;;;;;;0.50;0.40;;;23.80;42.00;;;;;;2097131;28;20029;-89
2022/06/22 19:37:26;;;;;;;0.70;0.50;;;23.80;42.10;;;;;;2096993;28;20028;-87
2022/06/22 19:39:01;;;;;;;0.70;0.40;;;23.70;42.10;;;;;;2096028;28;20028;-87
2022/06/22 19:40:36;;;;;;;1.58;0.35;;;23.70;42.30;;;;;;2096527;28;20429;-88
2022/06/22 19:42:05;;;;;;;0.43;0.40;;;23.60;42.30;;;;;;2097469;28;20024;-88
2022/06/22 19:43:36;;;;;;;0.60;0.40;;;23.60;42.50;;;;;;2097133;28;20037;-88
2022/06/22 19:45:12;;;;;;;0.50;0.38;;;23.50;42.50;;;;;;2095901;28;20064;-88
2022/06/22 19:46:37;;;;;;;0.88;0.50;;;23.50;42.60;;;;;;2095967;28;20025;-88
2022/06/22 19:48:00;;;;;;;0.68;0.38;;;23.50;42.70;;;;;;2098384;28;20028;-87
2022/06/22 19:49:47;;;;;;;0.85;0.40;;;23.40;42.70;;;;;;2095927;28;20029;-88
2022/06/22 19:51:39;;;;;;;1.10;0.40;;;23.40;42.80;;;;;;2096169;28;20522;-87
2022/06/22 19:53:25;;;;;;;1.00;0.50;;;23.40;43.00;;;;;;2092166;28;20032;-88
2022/06/22 19:54:57;;;;;;;2.78;0.63;;;23.30;43.00;;;;;;2100365;28;20123;-87
2022/06/22 19:56:33;;;;;;;0.63;0.40;;;23.30;43.20;;;;;;2094040;28;20120;-89
2022/06/22 19:57:52;;;;;;;1.05;0.60;;;23.20;43.20;;;;;;2097223;28;20021;-88
2022/06/22 19:59:15;;;;;;;0.93;0.40;;;23.20;43.30;;;;;;2096842;28;20063;-88
2022/06/22 20:00:40;;;;;;;1.35;0.40;;;23.20;43.50;;;;;;2098301;28;20025;-89
2022/06/22 20:02:11;;;;;;;0.80;0.50;;;23.20;43.60;;;;;;2102229;28;20028;-89
2022/06/22 20:03:44;;;;;;;1.33;0.40;;;23.10;43.60;;;;;;2104657;28;20103;-89
2022/06/22 20:05:17;;;;;;;1.85;0.50;;;23.10;43.70;;;;;;2103341;28;20044;-89
2022/06/22 20:06:43;;;;;;;1.15;0.60;;;23.00;43.80;;;;;;2091767;28;20066;-90
2022/06/22 20:08:11;;;;;;;0.70;0.50;;;23.00;43.80;;;;;;2112914;28;20000;-88
2022/06/22 20:10:00;;;;;;;0.50;0.40;;;23.00;43.90;;;;;;2089330;28;20048;-89
2022/06/22 20:11:27;;;;;;;1.02;0.50;;;23.00;44.10;;;;;;2091923;28;20025;-91
2022/06/22 20:12:52;;;;;;;1.00;0.47;;;22.90;44.10;;;;;;2093498;28;20068;-91
2022/06/22 20:14:15;;;;;;;0.98;0.57;;;22.90;44.20;;;;;;2088076;28;20029;-88
2022/06/22 20:15:57;;;;;;;2.03;0.75;;;22.80;44.20;;;;;;2088708;28;20120;-90
2022/06/22 20:17:32;;;;;;;1.65;0.50;;;22.80;44.30;;;;;;2091321;28;20029;-90
2022/06/22 20:18:53;;;;;;;3.58;0.60;;;22.80;44.40;;;;;;2094326;28;20530;-90
2022/06/22 20:20:14;;;;;;;0.90;0.45;;;22.70;44.50;;;;;;2095638;28;20107;-91
2022/06/22 20:22:02;;;;;;;1.25;0.60;;;22.70;44.70;;;;;;2085924;28;20037;-91
2022/06/22 20:23:45;;;;;;;0.90;0.47;;;22.70;44.70;;;;;;2093818;28;20033;-88
2022/06/22 20:25:28;;;;;;;1.48;0.57;;;22.70;44.80;;;;;;2100346;28;20040;-90
2022/06/22 20:27:05;;;;;;;1.35;0.52;;;22.60;44.90;;;;;;2104479;28;20056;-92
2022/06/22 20:28:38;;;;;;;0.95;0.50;;;22.60;45.00;;;;;;2090542;28;20515;-88
2022/06/22 20:30:06;;;;;;;1.98;0.60;;;22.50;45.00;;;;;;2091420;28;20060;-90
2022/06/22 20:31:31;;;;;;;1.75;0.70;;;22.50;45.20;;;;;;2093442;28;20029;-89
2022/06/22 20:33:18;;;;;;;1.50;0.60;;;22.50;45.20;;;;;;2096337;28;20024;-89
2022/06/22 20:34:46;;;;;;;1.75;0.60;;;22.40;45.30;;;;;;2096177;28;20033;-89
2022/06/22 20:36:23;;;;;;;1.35;0.60;;;22.40;45.40;;;;;;2090632;28;20483;-89
2022/06/22 20:37:46;;;;;;;0.80;0.45;;;22.30;45.50;;;;;;2090116;28;20021;-90
2022/06/22 20:39:06;;;;;;;1.17;0.63;;;22.30;45.60;;;;;;2087681;28;20037;-89
2022/06/22 20:40:50;;;;;;;1.25;0.50;;;22.30;45.70;;;;;;2085697;28;20033;-89
2022/06/22 20:42:14;;;;;;;1.05;0.60;;;22.30;45.80;;;;;;2090437;28;20029;-89
2022/06/22 20:43:43;;;;;;;1.27;0.63;;;22.20;45.90;;;;;;2090633;28;20495;-89
2022/06/22 20:45:10;;;;;;;0.98;0.50;;;22.20;46.00;;;;;;2090628;28;20162;-90
2022/06/22 20:47:01;;;;;;;1.02;0.60;;;22.20;46.10;;;;;;2088007;28;20111;-89
2022/06/22 20:48:26;;;;;;;0.93;0.50;;;22.10;46.20;;;;;;2092864;28;20032;-89
2022/06/22 20:50:02;;;;;;;1.83;0.60;;;22.10;46.30;;;;;;2090827;28;20032;-89
2022/06/22 20:51:31;;;;;;;1.60;0.60;;;22.10;47.00;;;;;;2090983;28;20052;-89
2022/06/22 20:53:02;;;;;;;2.25;0.60;;;22.10;46.50;;;;;;2090489;28;20482;-89
2022/06/22 20:54:24;;;;;;;;;;;22.10;46.60;;;;;;2094278;28;20036;-89
2022/06/22 20:56:08;;;;;;;2.08;0.80;;;22.00;46.70;;;;;;2099059;28;19917;-89
2022/06/22 20:57:35;;;;;;;1.35;0.50;;;22.00;46.70;;;;;;2099118;28;20025;-89
2022/06/22 20:59:09;;;;;;;1.25;0.60;;;22.00;46.80;;;;;;2098593;28;20025;-89
2022/06/22 21:00:30;;;;;;;1.33;0.60;;;22.00;47.00;;;;;;2095276;28;20466;-88
2022/06/22 21:01:49;;;;;;;1.00;0.65;;;21.90;47.00;;;;;;2091103;28;20024;-90
2022/06/22 21:03:11;;;;;;;1.42;0.70;;;21.90;47.20;;;;;;2095630;28;20021;-88
2022/06/22 21:04:47;;;;;;;1.65;0.55;;;21.80;47.20;;;;;;2089483;28;20037;-90
2022/06/22 21:06:20;;;;;;;1.10;0.60;;;21.80;47.40;;;;;;2089621;28;20403;-90
2022/06/22 21:07:41;;;;;;;1.13;0.68;;;21.80;47.60;;;;;;2089477;28;20025;-90
2022/06/22 21:09:12;;;;;;;2.10;0.80;;;21.80;47.80;;;;;;2086294;28;20033;-88
2022/06/22 21:10:34;;;;;;;2.75;1.08;;;21.80;48.20;;;;;;2092421;28;20451;-89
2022/06/22 21:12:18;;;;;;;1.45;0.60;;;21.70;48.40;;;;;;2084577;28;20510;-90
2022/06/22 21:13:54;;;;;;;0.68;0.60;;;21.70;48.60;;;;;;2090112;28;20072;-90
2022/06/22 21:15:17;;;;;;;1.88;0.80;;;21.70;48.80;;;;;;2090966;28;20475;-89
2022/06/22 21:16:49;;;;;;;3.67;0.98;;;21.70;49.00;;;;;;2087460;28;20025;-88
2022/06/22 21:18:08;;;;;;;2.42;0.90;;;21.60;49.30;;;;;;2088734;28;20419;-90
2022/06/22 21:19:46;;;;;;;2.33;0.90;;;21.60;49.50;;;;;;2086775;28;20036;-90
2022/06/22 21:21:08;;;;;;;2.85;0.95;;;21.60;49.70;;;;;;2093399;28;20104;-89
2022/06/22 21:22:34;;;;;;;1.73;0.93;;;21.60;49.80;;;;;;2098737;28;20060;-89
2022/06/22 21:24:02;;;;;;;1.40;0.80;;;21.50;50.10;;;;;;2098917;28;20025;-91
2022/06/22 21:25:24;;;;;;;1.75;0.90;;;21.60;50.40;;;;;;2095258;28;20040;-91
2022/06/22 21:26:44;;;;;;;2.08;1.15;;;21.50;50.50;;;;;;2090082;28;20427;-90
2022/06/22 21:28:29;;;;;;;3.75;1.13;;;21.50;50.70;;;;;;2086656;28;20036;-89
2022/06/22 21:29:49;;;;;;;1.92;0.77;;;21.40;50.90;;;;;;2090775;28;20398;-88
2022/06/22 21:31:12;;;;;;;4.00;1.10;;;21.40;51.00;;;;;;2084138;28;20461;-91
2022/06/22 21:32:32;;;;;;;2.28;0.93;;;21.40;51.30;;;;;;2076561;28;20026;-91
2022/06/22 21:34:00;;;;;;;4.05;1.15;;;21.40;51.40;;;;;;2075427;28;20037;-90
2022/06/22 21:35:44;;;;;;;2.42;0.90;;;21.40;51.60;;;;;;2085664;28;20025;-91
2022/06/22 21:37:13;;;;;;;2.35;1.10;;;21.30;51.90;;;;;;2090473;28;20032;-91
2022/06/22 21:39:06;;;;;;;2.33;1.20;;;21.30;52.10;;;;;;2090103;28;20024;-91
2022/06/22 21:40:42;;;;;;;2.70;1.23;;;21.30;52.30;;;;;;2093416;28;20021;-91
2022/06/22 21:42:26;;;;;;;1.55;0.82;;;21.20;52.60;;;;;;2097977;28;20029;-91
2022/06/22 21:43:54;;;;;;;2.55;1.30;;;21.10;53.00;;;;;;2090456;28;20028;-91
2022/06/22 21:45:55;;;;;;;2.40;1.00;;;21.10;53.20;;;;;;2092609;28;20049;-91
2022/06/22 21:47:28;;;;;;;2.50;1.10;;;21.10;53.50;;;;;;2098032;28;20040;-90
2022/06/22 21:49:13;;;;;;;3.10;1.23;;;21.00;53.60;;;;;;2098486;28;20029;-91
2022/06/22 21:50:41;;;;;;;3.17;1.30;;;21.00;54.10;;;;;;2090832;28;20068;-90
2022/06/22 21:52:37;;;;;;;3.08;1.20;;;20.90;54.30;;;;;;2089495;28;20450;-91
2022/06/22 21:54:25;;;;;;;3.17;1.40;;;20.90;54.70;;;;;;2092665;28;20460;-93
2022/06/22 21:56:02;;;;;;;2.78;1.35;;;20.90;55.00;;;;;;2095537;28;20107;-92
2022/06/22 21:57:34;;;;;;;3.00;1.25;;;20.80;55.40;;;;;;2093504;28;20037;-91
2022/06/22 21:59:39;;;;;;;3.92;1.25;;;20.80;55.70;;;;;;2090375;28;20556;-88
2022/06/22 22:01:20;;;;;;;6.15;1.52;;;20.70;56.40;;;;;;2089722;28;20068;-91
2022/06/22 22:02:44;;;;;;;;;;;20.70;56.30;;;;;;2098289;28;20032;-91
2022/06/22 22:04:19;;;;;;;2.58;1.17;;;20.70;56.40;;;;;;2098036;28;20386;-91
2022/06/22 22:05:59;;;;;;;2.35;1.30;;;20.60;56.50;;;;;;2091609;28;20124;-92
2022/06/22 22:07:18;;;;;;;2.88;1.27;;;20.60;57.00;;;;;;2102714;28;20028;-91
2022/06/22 22:08:56;;;;;;;4.32;1.50;;;20.50;57.10;;;;;;2094806;28;20021;-91
2022/06/22 22:10:18;;;;;;;2.40;1.40;;;20.50;57.60;;;;;;2088240;28;20064;-90
2022/06/22 22:11:50;;;;;;;3.65;1.50;;;20.50;57.80;;;;;;2090712;28;20029;-90
2022/06/22 22:13:09;;;;;;;2.22;1.25;;;20.50;58.20;;;;;;2088271;28;20041;-91
2022/06/22 22:14:52;;;;;;;3.60;1.20;;;20.40;58.30;;;;;;2078652;28;20570;-91
2022/06/22 22:16:25;;;;;;;3.22;1.30;;;20.40;58.70;;;;;;2098172;28;20029;-91
2022/06/22 22:17:48;;;;;;;3.40;1.48;;;20.40;58.90;;;;;;2091799;28;20029;-91
2022/06/22 22:19:10;;;;;;;4.18;1.73;;;20.40;59.20;;;;;;2089853;28;20028;-90
2022/06/22 22:20:39;;;;;;;3.60;1.77;;;20.40;59.90;;;;;;2090907;28;20024;-89
2022/06/22 22:22:00;;;;;;;4.88;1.70;;;20.30;60.20;;;;;;2093992;28;20108;-91
2022/06/22 22:23:30;;;;;;;3.78;1.60;;;20.30;60.40;;;;;;2086872;28;20076;-90
2022/06/22 22:24:52;;;;;;;3.05;1.90;;;20.30;60.80;;;;;;2088491;28;20487;-91
2022/06/22 22:26:39;;;;;;;4.47;1.70;;;20.30;61.10;;;;;;2086935;28;20088;-91
2022/06/22 22:28:06;;;;;;;4.85;1.73;;;20.20;61.30;;;;;;2089809;28;20032;-90
2022/06/22 22:29:38;;;;;;;4.68;2.08;;;20.20;61.70;;;;;;2090269;28;20029;-91
2022/06/22 22:31:00;;;;;;;3.92;1.77;;;20.10;61.90;;;;;;2088572;28;20025;-90
2022/06/22 22:32:19;;;;;;;4.95;1.90;;;20.10;62.00;;;;;;2090353;28;20021;-91
2022/06/22 22:33:39;;;;;;;4.35;1.90;;;20.10;62.20;;;;;;2083907;28;20037;-91
2022/06/22 22:35:02;;;;;;;4.72;1.80;;;20.10;62.50;;;;;;2083505;28;20060;-90
2022/06/22 22:36:33;;;;;;;3.30;1.60;;;20.00;62.70;;;;;;2086444;28;20029;-91
2022/06/22 22:37:52;;;;;;;4.95;1.70;;;20.00;63.00;;;;;;2089818;28;20032;-91
2022/06/22 22:39:17;;;;;;;5.00;1.65;;;20.00;63.20;;;;;;2081129;28;20041;-92
2022/06/22 22:40:50;;;;;;;5.28;1.83;;;20.00;64.00;;;;;;2085609;28;20033;-91
2022/06/22 22:42:14;;;;;;;4.63;1.98;;;19.90;63.80;;;;;;2090395;28;20104;-91
2022/06/22 22:43:42;;;;;;;3.70;1.90;;;19.90;63.80;;;;;;2092208;28;20033;-91
2022/06/22 22:45:02;;;;;;;6.20;2.55;;;19.90;64.10;;;;;;2091764;28;20049;-90
2022/06/22 22:46:28;;;;;;;5.22;1.95;;;19.80;64.30;;;;;;2086861;28;20438;-91
2022/06/22 22:47:48;;;;;;;5.18;2.05;;;19.80;64.70;;;;;;2087341;28;20491;-91
2022/06/22 22:49:19;;;;;;;4.65;1.98;;;19.80;64.80;;;;;;2086016;28;20495;-91
2022/06/22 22:50:39;;;;;;;4.65;1.85;;;19.80;65.00;;;;;;2090657;28;20021;-91
2022/06/22 22:52:15;;;;;;;5.10;1.73;;;19.70;65.10;;;;;;2084727;28;20045;-91
2022/06/22 22:53:35;;;;;;;6.00;2.00;;;19.70;65.40;;;;;;2089798;28;20021;-90
2022/06/22 22:55:24;;;;;;;3.95;1.98;;;19.70;65.40;;;;;;2079864;28;20030;-90
2022/06/22 22:56:55;;;;;;;4.20;1.95;;;19.60;65.70;;;;;;2097942;28;20119;-90
2022/06/22 22:58:33;;;;;;;5.05;2.00;;;19.60;65.90;;;;;;2098390;28;20025;-91
2022/06/22 22:59:57;;;;;;;5.18;2.13;;;19.60;66.20;;;;;;2091979;28;20029;-90